Prior Lake, Minnesota
Current Conditions -  °F | °C
As of 7:53 PM on Thursday 20 Nov 2014 (Local Time) from KFCM Reporting Station
Clear Clear  
Wind Chill: -3°   Ceiling: Unl
Heat Index:   Visibility: 10mi
Dew Point:   Wind: 7mph
Humidity: 76%   Direction: 240°WSW
Pressure: 30.22"   Gusts: NA
Location:  44.71°N, 93.42°W
Report Text: KFCM 210153Z 24006KT 10SM CLR M13/M17 A3022 RMK AO2 SLP256 T11331167
Loading
Personal Weather Stations






























Interactive Weather Map New forecast layout! Learn more

10-Day Weather Forecast

Advertisements
Track Severe Weather on mobile